Terminal Aerodrome Forecast
Issued by NWS Dallas/Fort Worth, TX

Home | Current Version | Previous Version | Text Only | Print | Product List | Glossary On
Versions: 1 2 3 4 5 6 7 8 9 10 11 12 13 14 15 16 17 18 19 20 21 22 23 24 25 26 27 28 29 30 31 32 33 34 35 36 37
154
FTUS44 KFWD 161740
TAFDFW
TAF
KDFW 161740Z 1618/1724 27007KT P6SM FEW010 SCT250
     FM170000 34007KT P6SM SCT070
     FM171700 36006KT P6SM SCT025 OVC070=

USA.gov is the U.S. government's official web portal to all federal, state and local government web resources and services.